アンカレッジ/テッド・スティーブンス の空港の天気 - METARとTAF

テッド・スティーブンス・アンカレッジ国際空港 ( PANC / ANC ) - アメリカ アラスカ州アンカレッジ
飛行場実況気象(Metar)
観測時間04/25 05:53 AKDT (04/25 13:53 UTC)
風向・風速南南東 7m/s 瞬間風速11m/s
視程10km以上
天気現象
全天の4割程度の雲 雲底高度 1830m
全天の8割程度の雲 雲底高度 2440m
気温5.6℃
湿度64%
気圧1011.4hPa
METARPANC 251353Z 15013G21KT 10SM SCT060 BKN080 06/M01 A2986 RMK AO2 SLP114 T00561006
過去の天気等 Google飛行場航空写真 Wunderground天気予報

過去48時間のMETAR

飛行場予報(TAF)
発表時間: 4/25 03:22 AKDT (4/25 11:22 UTC)
予報対象時間: 25日4時 AKDT ~ 26日10時 AKDT
風向・風速南南東 7m/s 瞬間風速 12m/s
視程10km以上
全天の4割程度の雲 雲底高度 1,520m
全天の8割程度の雲 雲底高度 2,130m
全天の8割程度の雲 雲底高度 3,660m
25日10時 AKDT から
風向・風速南東 9m/s 瞬間風速 14m/s
視程10km以上
天気現象周辺でしゅう雨
全天の4割程度の雲 雲底高度 910m
全天の8割程度の雲 雲底高度 1,520m
PANC 251122Z 2512/2618 15014G23KT P6SM SCT050 BKN070 BKN120
FM251800 14018G28KT P6SM VCSH SCT030 BKN050